Time;durP1;ratioP1;P1;durP2;ratioP2;P2;SDS_P1;SDS_P2;PMS_P1;PMS_P2;Temp;Humidity;BMP_temperature;BMP_pressure;BME280_temperature;BME280_humidity;BME280_pressure;Samples;Min_cycle;Max_cycle;Signal;HPM_P1;HPM_P2
2022/04/14 00:00:34;;;;;;;45.30;34.75;;;;;;;9.99;100.00;101841.06;5343342;27;20490;-62
2022/04/14 00:03:05;;;;;;;42.53;34.00;;;;;;;9.98;100.00;101839.38;5346228;27;20471;-62
2022/04/14 00:05:37;;;;;;;44.72;35.60;;;;;;;9.97;100.00;101840.31;5352245;27;20118;-62
2022/04/14 00:08:08;;;;;;;41.00;32.83;;;;;;;10.00;100.00;101842.81;5348060;27;20074;-62
2022/04/14 00:10:39;;;;;;;41.05;32.55;;;;;;;9.96;100.00;101843.94;5345529;27;20389;-62
2022/04/14 00:13:10;;;;;;;45.13;34.10;;;;;;;9.94;100.00;101833.34;5352038;27;20381;-63
2022/04/14 00:15:42;;;;;;;41.88;33.08;;;;;;;9.95;100.00;101839.53;5355358;27;20504;-62
2022/04/14 00:18:13;;;;;;;43.05;34.00;;;;;;;9.91;100.00;101840.66;5352755;27;20034;-62
2022/04/14 00:20:44;;;;;;;45.35;33.45;;;;;;;9.95;100.00;101834.22;5358463;27;20045;-62
2022/04/14 00:23:16;;;;;;;40.17;32.28;;;;;;;9.92;100.00;101829.91;5345393;27;20039;-62
2022/04/14 00:25:47;;;;;;;40.50;33.00;;;;;;;9.88;100.00;101830.19;5347506;27;20046;-62
2022/04/14 00:28:18;;;;;;;46.90;34.22;;;;;;;9.91;100.00;101828.19;5346227;27;20033;-62
2022/04/14 00:30:49;;;;;;;40.15;32.53;;;;;;;9.89;100.00;101824.75;5346060;27;20034;-62
2022/04/14 00:33:21;;;;;;;43.03;34.13;;;;;;;9.91;100.00;101827.34;5343635;27;20031;-62
2022/04/14 00:35:52;;;;;;;42.58;32.38;;;;;;;9.89;100.00;101829.22;5342847;27;20060;-62
2022/04/14 00:38:23;;;;;;;41.95;33.78;;;;;;;9.91;100.00;101825.53;5349634;27;20041;-62
2022/04/14 00:40:55;;;;;;;46.83;36.00;;;;;;;9.87;100.00;101828.47;5344692;27;20156;-62
2022/04/14 00:43:31;;;;;;;43.38;34.80;;;;;;;9.84;100.00;101828.63;5344941;27;20492;-62
2022/04/14 00:46:02;;;;;;;39.78;31.70;;;;;;;9.86;100.00;101824.94;5353558;27;20030;-62
2022/04/14 00:48:34;;;;;;;45.47;34.40;;;;;;;9.82;100.00;101829.59;5344512;27;20031;-62
2022/04/14 00:51:07;;;;;;;42.60;33.72;;;;;;;9.81;100.00;101829.69;5347477;27;20095;-62
2022/04/14 00:53:39;;;;;;;49.30;37.45;;;;;;;9.82;100.00;101826.09;5347016;27;20466;-62
2022/04/14 00:56:11;;;;;;;49.03;36.55;;;;;;;9.88;100.00;101828.38;5351494;27;20034;-62
2022/04/14 00:58:43;;;;;;;50.25;36.25;;;;;;;9.84;100.00;101826.84;5346301;27;20053;-62
2022/04/14 01:01:14;;;;;;;46.92;35.88;;;;;;;9.81;100.00;101827.88;5351849;27;20030;-62
2022/04/14 01:03:46;;;;;;;49.45;37.05;;;;;;;9.82;100.00;101824.28;5339408;27;20022;-62
2022/04/14 01:06:19;;;;;;;52.75;37.78;;;;;;;9.79;100.00;101831.56;5345223;27;20066;-62
2022/04/14 01:11:53;;;;;;;47.45;35.67;;;;;;;9.78;100.00;101833.38;5350410;27;20492;-62
2022/04/14 01:14:31;;;;;;;52.55;37.90;;;;;;;9.77;100.00;101825.47;5343717;27;20058;-62
2022/04/14 01:17:06;;;;;;;48.10;36.72;;;;;;;9.75;100.00;101825.56;5344321;27;20124;-62
2022/04/14 01:19:38;;;;;;;50.08;37.60;;;;;;;9.71;100.00;101821.34;5344881;27;20038;-62
2022/04/14 01:22:30;;;;;;;42.13;33.65;;;;;;;9.77;100.00;101825.47;5342160;27;22240;-62
2022/04/14 01:25:02;;;;;;;48.22;36.95;;;;;;;9.70;100.00;101826.75;5343189;27;20030;-62
2022/04/14 01:27:33;;;;;;;45.08;34.30;;;;;;;9.71;100.00;101823.16;5344493;27;20965;-62
2022/04/14 01:30:05;;;;;;;48.17;36.45;;;;;;;9.66;100.00;101822.56;5344375;27;20019;-62
2022/04/14 01:32:36;;;;;;;48.72;36.85;;;;;;;9.67;100.00;101826.97;5344206;27;20064;-63
2022/04/14 01:35:08;;;;;;;50.08;37.05;;;;;;;9.66;100.00;101817.22;5353434;27;20031;-62
2022/04/14 01:37:39;;;;;;;49.40;36.30;;;;;;;9.67;100.00;101826.97;5346730;27;20027;-62
2022/04/14 01:40:11;;;;;;;47.33;34.88;;;;;;;9.60;100.00;101821.09;5341870;27;20039;-62
2022/04/14 01:42:42;;;;;;;48.17;36.40;;;;;;;9.62;100.00;101828.06;5349833;27;20034;-62
2022/04/14 01:45:14;;;;;;;55.70;41.00;;;;;;;9.71;100.00;101820.50;5355339;27;20680;-62
2022/04/14 01:47:46;;;;;;;47.08;35.47;;;;;;;9.65;100.00;101815.53;5349459;27;20102;-62
2022/04/14 01:50:18;;;;;;;51.60;37.83;;;;;;;9.53;100.00;101823.28;5355469;27;20087;-62
2022/04/14 01:52:50;;;;;;;51.10;36.75;;;;;;;9.58;100.00;101817.66;5347377;27;20035;-62
2022/04/14 01:55:21;;;;;;;52.08;38.28;;;;;;;9.59;100.00;101822.91;5359246;27;20143;-62
2022/04/14 01:57:52;;;;;;;47.85;34.58;;;;;;;9.57;100.00;101829.28;5354733;27;20038;-62
2022/04/14 02:00:24;;;;;;;52.47;38.15;;;;;;;9.54;100.00;101824.13;5350801;27;20030;-62
2022/04/14 02:02:55;;;;;;;54.47;38.22;;;;;;;9.53;100.00;101817.06;5360380;27;20066;-62
2022/04/14 02:05:26;;;;;;;56.80;40.22;;;;;;;9.55;100.00;101829.38;5355168;27;20031;-62
2022/04/14 02:07:57;;;;;;;62.28;43.40;;;;;;;9.55;100.00;101832.03;5354109;27;20039;-62
2022/04/14 02:10:29;;;;;;;57.28;39.72;;;;;;;9.48;100.00;101828.00;5356246;27;20429;-62
2022/04/14 02:13:00;;;;;;;59.42;40.20;;;;;;;9.50;100.00;101839.41;5354401;27;20520;-62
2022/04/14 02:15:32;;;;;;;59.25;40.50;;;;;;;9.50;100.00;101831.44;5351894;27;20427;-62
2022/04/14 02:18:03;;;;;;;58.30;40.28;;;;;;;9.49;100.00;101832.38;5357098;27;20039;-63
2022/04/14 02:20:34;;;;;;;55.70;38.53;;;;;;;9.50;100.00;101828.75;5357685;27;20045;-62
2022/04/14 02:23:05;;;;;;;66.85;43.78;;;;;;;9.55;100.00;101840.03;5356807;27;20167;-62
2022/04/14 02:25:37;;;;;;;57.08;40.28;;;;;;;9.53;100.00;101841.91;5353913;27;20033;-62
2022/04/14 02:28:08;;;;;;;61.50;42.40;;;;;;;9.53;100.00;101841.03;5349829;27;20054;-62
2022/04/14 02:30:40;;;;;;;60.63;41.47;;;;;;;9.53;100.00;101844.59;5345934;27;20030;-62
2022/04/14 02:33:11;;;;;;;59.22;41.58;;;;;;;9.48;100.00;101837.78;5362308;27;20026;-62
2022/04/14 02:35:42;;;;;;;56.00;39.55;;;;;;;9.44;100.00;101839.75;5352048;27;20172;-62
2022/04/14 02:38:14;;;;;;;54.45;37.55;;;;;;;9.45;100.00;101845.94;5353887;27;20023;-62
2022/04/14 02:40:45;;;;;;;56.15;40.13;;;;;;;9.43;100.00;101846.03;5363685;27;20023;-62
2022/04/14 02:43:16;;;;;;;54.70;38.88;;;;;;;9.39;100.00;101848.00;5356571;27;20030;-62
2022/04/14 02:45:48;;;;;;;54.00;37.85;;;;;;;9.37;100.00;101844.56;5348495;27;20035;-62
2022/04/14 02:48:19;;;;;;;53.42;37.63;;;;;;;9.35;100.00;101848.25;5360107;27;20407;-62
2022/04/14 02:50:50;;;;;;;55.78;39.20;;;;;;;9.32;100.00;101851.97;5353122;27;20062;-63
2022/04/14 02:53:21;;;;;;;53.42;39.22;;;;;;;9.33;100.00;101855.47;5357289;27;20333;-62
2022/04/14 02:55:53;;;;;;;59.97;40.92;;;;;;;9.35;100.00;101850.94;5351637;27;20031;-62
2022/04/14 02:58:24;;;;;;;58.63;40.35;;;;;;;9.31;100.00;101847.56;5349881;27;20126;-62
2022/04/14 03:00:55;;;;;;;54.40;38.28;;;;;;;9.27;100.00;101838.03;5344450;27;20026;-62
2022/04/14 03:03:28;;;;;;;58.58;39.95;;;;;;;9.27;100.00;101838.03;5342911;27;20660;-62
2022/04/14 03:05:59;;;;;;;54.92;39.63;;;;;;;9.18;100.00;101842.03;5343101;27;20030;-62
2022/04/14 03:08:30;;;;;;;60.53;40.80;;;;;;;9.17;100.00;101836.84;5353423;27;20091;-62
2022/04/14 03:11:01;;;;;;;53.78;39.63;;;;;;;9.18;100.00;101839.38;5342817;27;20054;-62
2022/04/14 03:13:33;;;;;;;60.33;40.67;;;;;;;9.15;100.00;101836.91;5347814;27;20061;-63
2022/04/14 03:16:04;;;;;;;54.00;40.40;;;;;;;9.11;100.00;101840.69;5345603;27;20099;-62
2022/04/14 03:18:35;;;;;;;58.97;41.17;;;;;;;9.07;100.00;101844.47;5344405;27;20040;-62
2022/04/14 03:21:07;;;;;;;55.80;40.60;;;;;;;9.05;100.00;101843.69;5351839;27;20179;-62
2022/04/14 03:23:39;;;;;;;52.55;38.22;;;;;;;9.01;100.00;101844.75;5348658;27;20034;-62
2022/04/14 03:26:10;;;;;;;56.17;38.10;;;;;;;8.97;100.00;101851.19;5345854;27;20426;-62
2022/04/14 03:28:42;;;;;;;56.25;37.63;;;;;;;8.98;100.00;101837.81;5345624;27;20038;-62
2022/04/14 03:31:13;;;;;;;57.88;39.42;;;;;;;8.96;100.00;101845.03;5341801;27;20085;-62
2022/04/14 03:33:44;;;;;;;59.50;42.22;;;;;;;8.94;100.00;101843.41;5339748;27;20023;-62
2022/04/14 03:36:16;;;;;;;63.85;41.42;;;;;;;8.90;100.00;101845.34;5359331;27;20055;-62
2022/04/14 03:38:47;;;;;;;52.67;37.78;;;;;;;8.97;100.00;101836.09;5344833;27;20066;-62
2022/04/14 03:41:18;;;;;;;60.83;42.13;;;;;;;8.89;100.00;101856.94;5346526;27;20054;-62
2022/04/14 03:43:50;;;;;;;57.90;39.78;;;;;;;8.91;100.00;101846.22;5347745;27;20026;-62
2022/04/14 03:46:21;;;;;;;69.88;44.17;;;;;;;8.89;100.00;101848.09;5343661;27;20039;-62
2022/04/14 03:48:54;;;;;;;66.07;43.42;;;;;;;8.98;100.00;101844.94;5350597;27;20400;-62
2022/04/14 03:51:25;;;;;;;64.80;43.65;;;;;;;8.99;100.00;101844.00;5353272;27;20031;-62
2022/04/14 03:53:56;;;;;;;76.10;46.67;;;;;;;8.94;100.00;101838.06;5347552;27;20044;-62
2022/04/14 03:56:28;;;;;;;85.45;49.33;;;;;;;9.06;100.00;101840.06;5351273;27;20498;-62
2022/04/14 03:59:00;;;;;;;88.35;49.45;;;;;;;9.10;100.00;101841.63;5348596;27;20126;-62
2022/04/14 04:01:31;;;;;;;98.38;49.03;;;;;;;9.16;100.00;101838.59;5344887;27;20050;-62
2022/04/14 04:04:03;;;;;;;96.00;49.55;;;;;;;9.17;100.00;101842.16;5348257;27;20046;-62
2022/04/14 04:06:34;;;;;;;81.07;47.58;;;;;;;9.14;100.00;101842.31;5345631;27;20395;-62
2022/04/14 04:09:05;;;;;;;121.70;49.78;;;;;;;9.08;100.00;101851.47;5345203;27;20113;-62
2022/04/14 04:11:37;;;;;;;188.45;55.10;;;;;;;9.13;100.00;101849.44;5351183;27;20027;-62
2022/04/14 04:14:08;;;;;;;113.35;49.72;;;;;;;9.07;100.00;101848.91;5344776;27;20086;-63
2022/04/14 04:16:39;;;;;;;88.35;46.50;;;;;;;9.12;100.00;101850.38;5342585;27;20149;-62
2022/04/14 04:19:11;;;;;;;111.00;46.05;;;;;;;9.05;100.00;101846.34;5347117;27;20430;-62
2022/04/14 04:21:42;;;;;;;87.13;44.28;;;;;;;9.11;100.00;101861.97;5342945;27;20075;-63
2022/04/14 04:24:13;;;;;;;146.50;46.17;;;;;;;9.11;100.00;101863.75;5346364;27;20031;-62
2022/04/14 04:26:44;;;;;;;71.25;43.10;;;;;;;9.15;100.00;101868.00;5339011;27;20449;-62
2022/04/14 04:29:16;;;;;;;126.93;43.65;;;;;;;9.10;100.00;101867.38;5340923;27;20034;-62
2022/04/14 04:31:47;;;;;;;81.03;39.67;;;;;;;9.13;100.00;101869.88;5344418;27;20034;-62
2022/04/14 04:34:18;;;;;;;68.50;39.17;;;;;;;9.10;100.00;101867.38;5342154;27;20121;-62
2022/04/14 04:36:50;;;;;;;79.72;40.92;;;;;;;9.12;100.00;101870.81;5342312;27;20038;-62
2022/04/14 04:39:21;;;;;;;71.78;40.53;;;;;;;9.09;100.00;101876.28;5345415;27;20039;-62
2022/04/14 04:41:52;;;;;;;114.13;42.05;;;;;;;9.04;100.00;101879.22;5344164;27;20058;-62
2022/04/14 04:44:23;;;;;;;75.45;38.40;;;;;;;9.05;100.00;101883.63;5348898;27;20628;-62
2022/04/14 04:46:55;;;;;;;65.78;36.95;;;;;;;8.99;100.00;101875.94;5342992;27;20121;-62
2022/04/14 04:49:26;;;;;;;79.78;38.53;;;;;;;9.04;100.00;101879.22;5350947;27;20030;-62
2022/04/14 04:51:59;;;;;;;72.80;39.63;;;;;;;9.00;100.00;101883.84;5351264;27;20611;-62
2022/04/14 04:54:31;;;;;;;56.08;38.53;;;;;;;9.03;100.00;101886.34;5352846;27;20275;-62
2022/04/14 04:57:02;;;;;;;97.70;40.00;;;;;;;8.99;100.00;101884.81;5345028;27;20035;-62
2022/04/14 04:59:34;;;;;;;96.20;41.40;;;;;;;8.96;100.00;101892.09;5346918;27;20078;-62
2022/04/14 05:02:05;;;;;;;65.55;37.95;;;;;;;9.01;100.00;101895.34;5343597;27;20433;-62
2022/04/14 05:04:37;;;;;;;68.15;38.40;;;;;;;8.98;100.00;101884.88;5350817;27;20027;-62
2022/04/14 05:07:08;;;;;;;120.43;42.67;;;;;;;8.94;100.00;101892.16;5349146;27;20035;-62
2022/04/14 05:09:39;;;;;;;85.15;38.70;;;;;;;8.99;100.00;101897.22;5351073;27;20026;-62
2022/04/14 05:12:10;;;;;;;110.80;43.22;;;;;;;8.91;100.00;101894.97;5350186;27;20026;-62
2022/04/14 05:14:42;;;;;;;59.45;37.55;;;;;;;8.98;100.00;101898.19;5348070;27;20096;-62
2022/04/14 05:17:13;;;;;;;57.45;37.85;;;;;;;8.94;100.00;101893.97;5352813;27;20129;-62
2022/04/14 05:19:44;;;;;;;58.33;36.63;;;;;;;8.94;100.00;101901.94;5349413;27;20495;-62
2022/04/14 05:22:15;;;;;;;65.32;38.15;;;;;;;8.95;100.00;101898.34;5350679;27;20026;-62
2022/04/14 05:24:47;;;;;;;70.43;38.22;;;;;;;8.89;100.00;101898.66;5343886;27;20799;-62
2022/04/14 05:27:18;;;;;;;58.85;36.58;;;;;;;8.92;100.00;101901.19;5347998;27;20045;-62
2022/04/14 05:29:49;;;;;;;67.00;37.78;;;;;;;8.82;100.00;101904.31;5358712;27;20030;-62
2022/04/14 05:32:21;;;;;;;49.60;36.13;;;;;;;8.86;100.00;101907.69;5349606;27;20034;-62
2022/04/14 05:34:52;;;;;;;49.55;36.47;;;;;;;8.80;100.00;101906.19;5347022;27;20483;-62
2022/04/14 05:37:23;;;;;;;49.08;35.45;;;;;;;8.75;100.00;101904.72;5351230;27;20061;-62
2022/04/14 05:39:55;;;;;;;58.45;38.03;;;;;;;8.73;100.00;101922.56;5357343;27;20022;-62
2022/04/14 05:42:26;;;;;;;51.65;37.50;;;;;;;8.75;100.00;101924.19;5355968;27;20031;-62
2022/04/14 05:45:01;;;;;;;54.38;36.90;;;;;;;8.69;100.00;101927.19;5360808;27;20116;-62
2022/04/14 05:47:32;;;;;;;57.05;38.08;;;;;;;8.65;100.00;101928.28;5363137;27;20087;-62
2022/04/14 05:50:04;;;;;;;59.90;39.10;;;;;;;8.62;100.00;101936.41;5354965;27;20480;-62
2022/04/14 05:52:35;;;;;;;54.17;37.20;;;;;;;8.64;100.00;101937.19;5354655;27;20054;-62
2022/04/14 05:55:07;;;;;;;52.08;36.85;;;;;;;8.67;100.00;101931.72;5348966;27;20035;-62
2022/04/14 05:57:38;;;;;;;52.40;37.35;;;;;;;8.62;100.00;101933.75;5354855;27;20065;-62
2022/04/14 06:00:10;;;;;;;50.05;36.67;;;;;;;8.61;100.00;101932.00;5353034;27;20035;-62
2022/04/14 06:02:41;;;;;;;53.20;36.35;;;;;;;8.60;100.00;101931.16;5349281;27;21405;-62
2022/04/14 06:05:12;;;;;;;50.45;37.00;;;;;;;8.59;100.00;101936.53;5349634;27;20656;-62
2022/04/14 06:07:44;;;;;;;50.67;36.20;;;;;;;8.60;100.00;101941.78;5351368;27;20037;-62
2022/04/14 06:10:15;;;;;;;52.78;37.50;;;;;;;8.61;100.00;101945.31;5356018;27;20045;-62
2022/04/14 06:12:47;;;;;;;53.00;37.70;;;;;;;8.60;100.00;101936.47;5355643;27;20031;-62
2022/04/14 06:15:18;;;;;;;53.47;37.78;;;;;;;8.72;100.00;101934.97;5350010;27;20528;-62
2022/04/14 06:17:50;;;;;;;52.63;38.00;;;;;;;8.67;100.00;101938.81;5349781;27;20488;-62
2022/04/14 06:20:22;;;;;;;54.72;38.13;;;;;;;8.70;100.00;101936.00;5355737;27;20035;-62
2022/04/14 06:22:55;;;;;;;54.00;38.08;;;;;;;8.74;100.00;101934.91;5354868;27;20035;-62
2022/04/14 06:25:26;;;;;;;53.88;38.60;;;;;;;8.77;100.00;101935.63;5360819;27;20521;-62
2022/04/14 06:27:58;;;;;;;54.08;38.17;;;;;;;8.77;100.00;101935.63;5353396;27;20102;-62
2022/04/14 06:30:29;;;;;;;56.80;39.05;;;;;;;8.78;100.00;101940.00;5354065;27;20043;-62
2022/04/14 06:33:05;;;;;;;59.72;41.08;;;;;;;8.86;100.00;101942.28;5357450;27;20966;-62
2022/04/14 06:35:37;;;;;;;59.50;40.75;;;;;;;8.87;100.00;101938.66;5351164;27;20052;-62
2022/04/14 06:38:08;;;;;;;60.53;40.65;;;;;;;8.99;100.00;101946.03;5360169;27;20396;-62
2022/04/14 06:40:40;;;;;;;57.25;40.60;;;;;;;9.07;100.00;101944.75;5360121;27;20038;-62
2022/04/14 06:43:11;;;;;;;66.53;43.10;;;;;;;9.19;100.00;101944.97;5354586;27;20367;-62
2022/04/14 06:45:42;;;;;;;60.97;42.10;;;;;;;9.22;100.00;101946.59;5363415;27;20019;-62
2022/04/14 06:48:14;;;;;;;60.35;41.50;;;;;;;9.21;100.00;101944.88;5359579;27;20037;-62
2022/04/14 06:50:46;;;;;;;62.83;42.50;;;;;;;9.31;100.00;101938.13;5342251;27;20030;-62
2022/04/14 06:53:17;;;;;;;68.22;43.90;;;;;;;9.34;100.00;101937.09;5359779;27;20018;-62
2022/04/14 06:55:49;;;;;;;66.85;42.40;;;;;;;9.41;100.00;101944.69;5361234;27;20038;-62
2022/04/14 06:58:20;;;;;;;65.22;42.40;;;;;;;9.52;100.00;101949.41;5352585;27;20450;-63
2022/04/14 07:00:52;;;;;;;65.07;42.42;;;;;;;9.70;100.00;101941.34;5351639;27;20026;-62
2022/04/14 07:03:26;;;;;;;63.85;41.42;;;;;;;9.70;100.00;101941.34;5355843;27;20034;-62
2022/04/14 07:06:00;;;;;;;61.33;40.80;;;;;;;9.78;100.00;101945.34;5350721;27;20434;-62
2022/04/14 07:08:33;;;;;;;64.03;39.97;;;;;;;9.85;100.00;101940.50;5344154;27;20577;-62
2022/04/14 07:11:04;;;;;;;56.47;38.25;;;;;;;9.91;100.00;101942.81;5357432;27;20536;-63
2022/04/14 07:13:36;;;;;;;59.55;39.17;;;;;;;10.04;100.00;101945.66;5351770;27;20031;-63
2022/04/14 07:16:07;;;;;;;56.08;37.83;;;;;;;10.13;100.00;101944.28;5356926;27;20026;-63
2022/04/14 07:18:40;;;;;;;56.80;37.38;;;;;;;10.26;100.00;101950.66;5338381;27;20058;-62
2022/04/14 07:21:12;;;;;;;54.58;36.97;;;;;;;10.33;100.00;101960.03;5361120;27;20069;-62
2022/04/14 07:23:43;;;;;;;55.75;37.78;;;;;;;10.42;100.00;101947.13;5348064;27;20121;-63
2022/04/14 07:26:14;;;;;;;57.75;38.38;;;;;;;10.56;100.00;101949.84;5362271;27;20467;-63
2022/04/14 07:28:46;;;;;;;57.88;35.88;;;;;;;10.68;100.00;101950.91;5351469;27;20785;-62
2022/04/14 07:31:17;;;;;;;49.03;34.88;;;;;;;10.81;100.00;101957.25;5350990;27;20042;-63
2022/04/14 07:33:48;;;;;;;45.78;33.28;;;;;;;10.87;100.00;101953.34;5360700;27;20433;-62
2022/04/14 07:36:21;;;;;;;44.17;31.48;;;;;;;10.98;100.00;101956.22;5351979;27;20030;-63
2022/04/14 07:38:52;;;;;;;44.08;31.90;;;;;;;11.13;100.00;101955.31;5359767;27;20062;-62
2022/04/14 07:41:24;;;;;;;44.95;32.33;;;;;;;11.22;100.00;101961.91;5357601;27;20065;-63
2022/04/14 07:43:56;;;;;;;44.50;31.95;;;;;;;11.38;100.00;101968.00;5349010;27;20062;-63
2022/04/14 07:46:27;;;;;;;37.53;26.50;;;;;;;11.41;100.00;101964.31;5359464;27;20058;-63
2022/04/14 07:48:58;;;;;;;36.35;26.63;;;;;;;11.52;100.00;101958.28;5359127;27;20045;-62
2022/04/14 07:51:30;;;;;;;27.58;22.08;;;;;;;11.59;100.00;101964.97;5354763;27;20440;-63
2022/04/14 07:54:01;;;;;;;27.67;21.77;;;;;;;11.59;100.00;101967.63;5357002;27;20488;-63
2022/04/14 07:56:33;;;;;;;28.00;21.30;;;;;;;11.63;100.00;101966.47;5351917;27;20468;-63
2022/04/14 07:59:04;;;;;;;24.48;18.85;;;;;;;11.76;100.00;101964.75;5352521;27;20072;-63
2022/04/14 08:01:35;;;;;;;24.83;18.20;;;;;;;11.84;100.00;101977.63;5355860;27;20015;-63
2022/04/14 08:04:06;;;;;;;25.20;19.25;;;;;;;11.93;100.00;101969.06;5354049;27;20078;-63
2022/04/14 08:06:38;;;;;;;27.17;18.02;;;;;;;12.05;100.00;101970.06;5359517;27;20484;-63
2022/04/14 08:09:09;;;;;;;22.67;17.30;;;;;;;12.21;100.00;101969.06;5350826;27;20038;-62
2022/04/14 08:11:40;;;;;;;23.30;16.40;;;;;;;12.33;100.00;101969.13;5351463;27;20030;-63
2022/04/14 08:14:12;;;;;;;22.00;17.02;;;;;;;12.31;100.00;101976.41;5348227;27;20091;-63
2022/04/14 08:16:44;;;;;;;21.15;15.65;;;;;;;12.36;100.00;101971.59;5350128;27;20038;-63
2022/04/14 08:19:15;;;;;;;23.33;16.73;;;;;;;12.40;100.00;101969.56;5353458;27;20041;-63
2022/04/14 08:21:46;;;;;;;22.70;17.88;;;;;;;12.39;100.00;101967.00;5349920;27;20030;-63
2022/04/14 08:24:18;;;;;;;22.52;17.20;;;;;;;12.61;100.00;101969.13;5354767;27;20037;-63
2022/04/14 08:26:51;;;;;;;18.67;16.15;;;;;;;12.79;100.00;101978.59;5336003;27;20026;-64
2022/04/14 08:29:23;;;;;;;21.20;17.60;;;;;;;12.78;100.00;101981.38;5350240;27;20043;-63
2022/04/14 08:31:54;;;;;;;19.80;15.52;;;;;;;12.84;100.00;101979.13;5351397;27;20042;-63
2022/04/14 08:34:26;;;;;;;19.70;15.27;;;;;;;12.98;100.00;101972.81;5351139;27;20074;-63
2022/04/14 08:36:57;;;;;;;19.75;15.10;;;;;;;13.18;100.00;101978.66;5350572;27;20468;-63
2022/04/14 08:39:30;;;;;;;17.13;13.68;;;;;;;13.19;100.00;101969.63;5357583;27;20023;-63
2022/04/14 08:42:09;;;;;;;18.73;15.02;;;;;;;13.26;100.00;101971.78;5356136;27;20031;-63
2022/04/14 08:44:49;;;;;;;18.35;13.90;;;;;;;13.39;100.00;101973.63;5355565;27;20027;-63
2022/04/14 08:47:21;;;;;;;19.90;14.30;;;;;;;13.48;100.00;101971.16;5356045;27;20483;-63
2022/04/14 08:49:54;;;;;;;22.20;16.70;;;;;;;13.50;100.00;101969.22;5357980;27;20031;-63
2022/04/14 08:52:26;;;;;;;19.70;16.83;;;;;;;13.57;100.00;101968.78;5350473;27;20042;-63
2022/04/14 08:54:58;;;;;;;22.13;15.32;;;;;;;13.78;98.64;101971.75;5350332;27;20031;-63
2022/04/14 08:57:30;;;;;;;17.88;14.48;;;;;;;13.80;100.00;101970.66;5353973;27;20057;-63
2022/04/14 09:00:07;;;;;;;18.90;14.02;;;;;;;13.80;99.90;101967.97;5336297;27;20022;-63
2022/04/14 09:02:43;;;;;;;15.98;12.57;;;;;;;13.81;96.06;101979.59;5350572;27;20799;-63
2022/04/14 09:05:17;;;;;;;13.63;10.65;;;;;;;13.95;92.66;101976.75;5350137;27;20037;-63
2022/04/14 09:07:51;;;;;;;13.60;10.23;;;;;;;13.97;92.72;101977.50;5357602;27;20111;-63
2022/04/14 09:10:23;;;;;;;15.57;9.80;;;;;;;14.03;91.69;101979.72;5359179;27;20037;-63
2022/04/14 09:12:54;;;;;;;12.35;8.10;;;;;;;14.12;87.82;101978.22;5358676;27;20031;-63
2022/04/14 09:15:27;;;;;;;17.50;9.40;;;;;;;14.19;89.33;101979.47;5360340;27;20042;-63
2022/04/14 09:17:58;;;;;;;13.30;8.73;;;;;;;14.35;86.68;101981.03;5351161;27;20051;-63
2022/04/14 09:20:37;;;;;;;14.65;8.48;;;;;;;14.35;87.60;101968.44;5349149;27;20041;-63
2022/04/14 09:23:11;;;;;;;12.93;8.85;;;;;;;14.41;88.15;101956.41;5353239;27;20022;-63
2022/04/14 09:25:43;;;;;;;12.85;9.38;;;;;;;14.49;88.65;101962.03;5353380;27;20474;-63
2022/04/14 09:28:20;;;;;;;13.30;9.50;;;;;;;14.57;88.29;101961.50;5355322;27;20449;-63
2022/04/14 09:31:02;;;;;;;11.77;9.18;;;;;;;14.83;84.77;101955.00;5350698;27;20026;-63
2022/04/14 09:33:45;;;;;;;12.32;8.70;;;;;;;14.85;86.01;101962.94;5355678;27;20022;-63
2022/04/14 09:36:18;;;;;;;12.10;7.85;;;;;;;14.88;80.92;101951.94;5357374;27;20022;-63
2022/04/14 09:38:52;;;;;;;13.60;8.65;;;;;;;14.89;83.17;101954.50;5351985;27;20042;-63
2022/04/14 09:41:40;;;;;;;11.20;7.70;;;;;;;14.90;81.07;101950.03;5359106;27;20273;-63
2022/04/14 09:44:12;;;;;;;10.88;7.78;;;;;;;15.02;79.71;101934.78;5356966;27;20105;-63
2022/04/14 09:46:45;;;;;;;11.90;7.68;;;;;;;15.13;79.11;101936.59;5365236;27;20133;-63
2022/04/14 09:49:18;;;;;;;10.75;6.93;;;;;;;15.15;81.73;101948.09;5366740;27;20022;-63
2022/04/14 09:51:51;;;;;;;11.60;6.97;;;;;;;15.19;78.50;101944.22;5360863;27;20112;-63
2022/04/14 09:54:28;;;;;;;12.38;7.85;;;;;;;15.31;78.58;101937.84;5361856;27;20026;-63
2022/04/14 09:57:00;;;;;;;10.73;7.35;;;;;;;15.28;74.85;101933.56;5356557;27;20026;-63
2022/04/14 09:59:32;;;;;;;11.27;7.10;;;;;;;15.44;77.34;101935.06;5355178;27;20148;-63
2022/04/14 10:02:09;;;;;;;10.98;7.07;;;;;;;15.55;75.59;101928.78;5361286;27;20034;-63
2022/04/14 10:04:46;;;;;;;11.90;7.75;;;;;;;15.85;74.99;101925.50;5360901;27;20442;-63
2022/04/14 10:07:20;;;;;;;12.40;7.50;;;;;;;15.89;76.54;101926.94;5349878;27;20027;-63
2022/04/14 10:09:51;;;;;;;;;;;;;;;15.80;75.68;101925.88;5357893;27;20066;-63
2022/04/14 10:12:22;;;;;;;15.23;8.17;;;;;;;15.84;74.19;101926.50;5355044;27;20353;-63
2022/04/14 10:14:57;;;;;;;10.90;6.80;;;;;;;15.91;71.77;101940.28;5358311;27;20729;-63
2022/04/14 10:17:30;;;;;;;8.68;6.05;;;;;;;16.01;72.18;101938.53;5350570;27;20296;-63
2022/04/14 10:20:03;;;;;;;9.90;5.75;;;;;;;16.19;72.95;101953.19;5359067;27;20018;-63
2022/04/14 10:22:36;;;;;;;8.20;5.72;;;;;;;16.26;70.05;101957.09;5348010;27;20042;-63
2022/04/14 10:25:07;;;;;;;9.52;6.28;;;;;;;16.35;72.03;101962.69;5360464;27;20026;-63
2022/04/14 10:27:39;;;;;;;11.93;5.72;;;;;;;16.67;69.35;101962.69;5359051;27;20083;-63
2022/04/14 10:30:16;;;;;;;6.63;4.45;;;;;;;16.73;64.72;101969.38;5356382;27;20026;-63
2022/04/14 10:32:48;;;;;;;7.53;4.70;;;;;;;16.76;68.46;101969.09;5355324;27;20026;-63
2022/04/14 10:35:19;;;;;;;7.30;4.63;;;;;;;16.89;67.16;101975.19;5351352;27;20023;-63
2022/04/14 10:37:54;;;;;;;6.75;4.95;;;;;;;16.99;63.42;101978.84;5359888;27;20109;-64
2022/04/14 10:40:26;;;;;;;9.48;5.20;;;;;;;17.24;65.03;101976.72;5357656;27;20027;-63
2022/04/14 10:42:58;;;;;;;9.27;4.82;;;;;;;17.10;61.91;101993.22;5359470;27;20030;-64
2022/04/14 10:45:29;;;;;;;8.95;4.80;;;;;;;16.94;63.13;101989.16;5341357;27;20155;-63
2022/04/14 10:48:01;;;;;;;6.55;4.28;;;;;;;16.86;62.91;101980.88;5360100;27;20316;-63
2022/04/14 10:50:34;;;;;;;6.97;4.38;;;;;;;16.74;62.27;101984.56;5361547;27;20287;-63
2022/04/14 10:53:06;;;;;;;7.03;4.10;;;;;;;16.74;63.51;101977.34;5357756;27;20031;-63
2022/04/14 10:55:40;;;;;;;5.55;3.15;;;;;;;16.67;62.46;101971.59;5362419;27;20031;-64
2022/04/14 10:58:26;;;;;;;5.40;3.22;;;;;;;16.58;63.17;101969.69;5352907;27;20029;-63
2022/04/14 11:00:58;;;;;;;6.65;3.97;;;;;;;16.75;60.98;101976.34;5350631;27;20070;-63
2022/04/14 11:03:47;;;;;;;5.25;3.40;;;;;;;16.72;61.18;101964.97;5357112;27;20142;-64
2022/04/14 11:06:40;;;;;;;5.25;3.05;;;;;;;16.58;63.04;101969.69;5354152;27;20023;-63
2022/04/14 11:09:42;;;;;;;6.90;3.80;;;;;;;16.78;63.55;101973.41;5353834;27;20023;-64
2022/04/14 11:12:40;;;;;;;8.85;4.30;;;;;;;16.80;62.14;101973.28;5363404;27;20030;-63
2022/04/14 11:15:13;;;;;;;7.18;4.13;;;;;;;16.98;61.24;101973.56;5358482;27;20100;-64
2022/04/14 11:17:52;;;;;;;7.20;3.60;;;;;;;17.12;62.21;101965.13;5353777;27;20304;-63
2022/04/14 11:20:30;;;;;;;4.75;2.80;;;;;;;17.26;61.01;101961.25;5355765;27;20034;-64
2022/04/14 11:23:02;;;;;;;4.68;2.63;;;;;;;17.36;58.76;101958.59;5361428;27;20034;-64
2022/04/14 11:25:42;;;;;;;5.80;2.22;;;;;;;17.66;58.99;101960.44;5361219;27;20049;-63
2022/04/14 11:28:35;;;;;;;5.07;2.50;;;;;;;17.71;58.10;101960.88;5353598;27;20505;-64
2022/04/14 11:31:12;;;;;;;4.45;2.72;;;;;;;17.73;57.89;101958.03;5357685;27;20365;-64
2022/04/14 11:33:48;;;;;;;5.88;2.55;;;;;;;17.73;56.96;101955.34;5345001;27;20023;-64
2022/04/14 11:36:25;;;;;;;5.40;1.80;;;;;;;17.79;57.94;101968.28;5358300;27;20039;-64